Amsterdam, NY

6:08 PM EDT on July 05, 2015 (GMT -0400)
East End @ Kirk Douglas House | | Change Station
CLOSE
Current Station
Personal Weather Station
Location: Amsterdam, NY
Elevation: 276 ft
Nearby Weather Stations

Elev 276 ft 42.93 °N, 74.18 °W | Updated 5 seconds ago

Partly Cloudy
Partly Cloudy
81.6 °F
Feels Like 81 °F
N
5.0
Wind Variable Wind from WNW
Gusts 5.0 mph

Today
High -- | Low -- °F
--% Chance of Precip.
Yesterday
High -- | Low -- °F
Precip. -- in
5:23 AM 8:38 PM
Waning Gibbous, 81% visible
Pressure 30.09 in
Visibility 10.0 miles
Clouds Clear
Heat Index 81 °F
Dew Point 56 °F
Humidity 42%
Rainfall 0.00 in
Snow Depth Not available.
UV 5 out of 12
Pollen 5.20 out of 12
Air Quality Not available.
Flu Activity Not available.
METAR KSCH 052050Z 28008KT 10SM CLR 27/11 A3009

More Conditions Fewer Conditions

Pressure 30.09 in
Visibility 10.0 miles
Clouds Clear
Heat Index 81 °F
Dew Point 56 °F
Humidity 42%
Rainfall 0.00 in
Snow Depth Not available.
UV 5 out of 12
Pollen 5.20 out of 12
Air Quality Not available.
Flu Activity Not available.
METAR KSCH 052050Z 28008KT 10SM CLR 27/11 A3009

More Conditions Fewer Conditions

10-Day Weather Forecast

×

Almanac

Astronomy

Jul. 05, 2015 Rise Set
Actual Time
Civil Twilight
Nautical Twilight
Astronomical Twilight
Moon
Length of Visible Light
Length of Day
Tomorrow will be .
, % of the Moon is Illuminated

Today's Extremes

State Highs State Lows

Community

WunderPhotos

Upload Photos

1,835,404 photos uploaded!

WunderBlogs® & News

Nearby

Air Quality

  Air Quality AQ Index Pollutant
Not available.

Snow Depth

Station Depth Elevation

Earthquake Activity

City Distance Mag. Time & Date
Minimum magnitude displayed is 2.5.

Coastal Water Temperatures

Place Temperature

Stations

Nearby Weather Stations

Station Location Temp. Windchill Dew Point Humidity Wind Precip. Elev Updated Type